sensor_id;sensor_type;location;lat;lon;timestamp;pressure;altitude;pressure_sealevel;temperature;humidity
43281;BME280;62175;49.416;8.690;2022-11-23T00:01:58;99156.63;;;11.93;50.97
43281;BME280;62175;49.416;8.690;2022-11-23T00:04:26;99154.31;;;11.81;51.55
43281;BME280;62175;49.416;8.690;2022-11-23T00:06:53;99150.83;;;11.92;50.78
43281;BME280;62175;49.416;8.690;2022-11-23T00:09:20;99147.56;;;11.83;51.38
43281;BME280;62175;49.416;8.690;2022-11-23T00:11:48;99145.39;;;12.16;51.10
43281;BME280;62175;49.416;8.690;2022-11-23T00:14:14;99147.69;;;12.11;51.44
43281;BME280;62175;49.416;8.690;2022-11-23T00:16:42;99147.32;;;12.03;51.85
43281;BME280;62175;49.416;8.690;2022-11-23T00:19:09;99146.84;;;11.88;52.91
43281;BME280;62175;49.416;8.690;2022-11-23T00:21:36;99146.11;;;11.71;52.63
43281;BME280;62175;49.416;8.690;2022-11-23T00:24:04;99147.49;;;11.70;52.44
43281;BME280;62175;49.416;8.690;2022-11-23T00:26:31;99144.79;;;11.95;53.49
43281;BME280;62175;49.416;8.690;2022-11-23T00:28:59;99142.93;;;11.68;54.63
43281;BME280;62175;49.416;8.690;2022-11-23T00:31:26;99144.25;;;11.45;52.59
43281;BME280;62175;49.416;8.690;2022-11-23T00:33:54;99146.99;;;12.11;53.72
43281;BME280;62175;49.416;8.690;2022-11-23T00:36:23;99148.66;;;11.72;53.95
43281;BME280;62175;49.416;8.690;2022-11-23T00:38:51;99143.67;;;11.60;53.52
43281;BME280;62175;49.416;8.690;2022-11-23T00:41:20;99148.65;;;11.99;53.71
43281;BME280;62175;49.416;8.690;2022-11-23T00:43:48;99150.55;;;11.70;52.91
43281;BME280;62175;49.416;8.690;2022-11-23T00:46:17;99151.18;;;11.44;54.01
43281;BME280;62175;49.416;8.690;2022-11-23T00:48:46;99151.38;;;11.81;52.95
43281;BME280;62175;49.416;8.690;2022-11-23T00:51:15;99156.22;;;11.88;52.54
43281;BME280;62175;49.416;8.690;2022-11-23T00:53:43;99161.47;;;11.68;53.03
43281;BME280;62175;49.416;8.690;2022-11-23T00:56:10;99157.15;;;11.75;52.95
43281;BME280;62175;49.416;8.690;2022-11-23T00:58:38;99165.46;;;11.67;53.24
43281;BME280;62175;49.416;8.690;2022-11-23T01:01:08;99167.01;;;11.54;52.71
43281;BME280;62175;49.416;8.690;2022-11-23T01:03:38;99169.59;;;11.88;53.11
43281;BME280;62175;49.416;8.690;2022-11-23T01:06:08;99166.91;;;11.36;53.75
43281;BME280;62175;49.416;8.690;2022-11-23T01:08:36;99163.44;;;11.87;53.00
43281;BME280;62175;49.416;8.690;2022-11-23T01:11:05;99164.29;;;11.63;51.64
43281;BME280;62175;49.416;8.690;2022-11-23T01:13:34;99163.43;;;11.77;53.68
43281;BME280;62175;49.416;8.690;2022-11-23T01:16:14;99168.56;;;11.50;51.55
43281;BME280;62175;49.416;8.690;2022-11-23T01:18:45;99164.31;;;11.68;52.82
43281;BME280;62175;49.416;8.690;2022-11-23T01:21:16;99162.67;;;11.59;51.79
43281;BME280;62175;49.416;8.690;2022-11-23T01:23:45;99168.55;;;12.04;52.67
43281;BME280;62175;49.416;8.690;2022-11-23T01:26:13;99167.45;;;11.59;51.37
43281;BME280;62175;49.416;8.690;2022-11-23T01:28:42;99170.54;;;12.15;52.48
43281;BME280;62175;49.416;8.690;2022-11-23T01:31:14;99176.67;;;11.73;51.62
43281;BME280;62175;49.416;8.690;2022-11-23T01:33:46;99178.72;;;11.59;52.42
43281;BME280;62175;49.416;8.690;2022-11-23T01:36:17;99176.21;;;11.91;51.54
43281;BME280;62175;49.416;8.690;2022-11-23T01:38:45;99182.54;;;11.59;53.17
43281;BME280;62175;49.416;8.690;2022-11-23T01:41:14;99177.35;;;11.74;52.68
43281;BME280;62175;49.416;8.690;2022-11-23T01:43:42;99174.43;;;12.15;52.35
43281;BME280;62175;49.416;8.690;2022-11-23T01:46:10;99180.22;;;11.91;52.25
43281;BME280;62175;49.416;8.690;2022-11-23T01:48:39;99181.29;;;11.72;51.76
43281;BME280;62175;49.416;8.690;2022-11-23T01:51:12;99185.36;;;11.89;52.30
43281;BME280;62175;49.416;8.690;2022-11-23T01:53:42;99187.49;;;11.80;51.89
43281;BME280;62175;49.416;8.690;2022-11-23T01:56:15;99188.58;;;11.80;51.73
43281;BME280;62175;49.416;8.690;2022-11-23T01:58:47;99188.18;;;11.68;50.91
43281;BME280;62175;49.416;8.690;2022-11-23T02:01:15;99187.65;;;12.03;52.29
43281;BME280;62175;49.416;8.690;2022-11-23T02:03:44;99184.07;;;11.92;52.43
43281;BME280;62175;49.416;8.690;2022-11-23T02:06:15;99184.20;;;12.33;52.28
43281;BME280;62175;49.416;8.690;2022-11-23T02:08:42;99178.66;;;12.15;50.54
43281;BME280;62175;49.416;8.690;2022-11-23T02:11:12;99179.20;;;11.84;51.97
43281;BME280;62175;49.416;8.690;2022-11-23T02:13:40;99177.33;;;12.15;51.18
43281;BME280;62175;49.416;8.690;2022-11-23T02:16:08;99179.30;;;11.69;52.14
43281;BME280;62175;49.416;8.690;2022-11-23T02:18:36;99180.64;;;11.74;50.82
43281;BME280;62175;49.416;8.690;2022-11-23T02:21:07;99182.61;;;11.93;51.36
43281;BME280;62175;49.416;8.690;2022-11-23T02:23:39;99185.54;;;11.46;51.49
43281;BME280;62175;49.416;8.690;2022-11-23T02:26:12;99182.78;;;11.98;51.38
43281;BME280;62175;49.416;8.690;2022-11-23T02:28:43;99181.00;;;11.63;52.41
43281;BME280;62175;49.416;8.690;2022-11-23T02:31:12;99182.57;;;11.70;52.11
43281;BME280;62175;49.416;8.690;2022-11-23T02:33:40;99181.74;;;11.84;52.09
43281;BME280;62175;49.416;8.690;2022-11-23T02:36:35;99181.70;;;11.40;52.42
43281;BME280;62175;49.416;8.690;2022-11-23T02:39:07;99176.77;;;11.57;52.72
43281;BME280;62175;49.416;8.690;2022-11-23T02:41:36;99182.27;;;11.93;52.38
43281;BME280;62175;49.416;8.690;2022-11-23T02:44:06;99178.39;;;11.46;53.30
43281;BME280;62175;49.416;8.690;2022-11-23T02:46:38;99172.80;;;11.58;52.85
43281;BME280;62175;49.416;8.690;2022-11-23T02:49:05;99170.55;;;12.16;53.17
43281;BME280;62175;49.416;8.690;2022-11-23T02:51:33;99171.83;;;11.95;52.12
43281;BME280;62175;49.416;8.690;2022-11-23T02:54:00;99172.72;;;12.06;54.11
43281;BME280;62175;49.416;8.690;2022-11-23T02:56:28;99176.27;;;11.75;51.94
43281;BME280;62175;49.416;8.690;2022-11-23T02:58:55;99173.11;;;11.86;51.99
43281;BME280;62175;49.416;8.690;2022-11-23T03:01:22;99170.62;;;11.60;50.75
43281;BME280;62175;49.416;8.690;2022-11-23T03:03:49;99166.89;;;11.73;52.77
43281;BME280;62175;49.416;8.690;2022-11-23T03:06:17;99163.57;;;11.82;52.87
43281;BME280;62175;49.416;8.690;2022-11-23T03:08:44;99162.71;;;11.76;54.52
43281;BME280;62175;49.416;8.690;2022-11-23T03:11:11;99166.07;;;12.29;52.78
43281;BME280;62175;49.416;8.690;2022-11-23T03:13:38;99163.89;;;11.59;52.68
43281;BME280;62175;49.416;8.690;2022-11-23T03:16:05;99169.55;;;11.45;51.59
43281;BME280;62175;49.416;8.690;2022-11-23T03:18:33;99171.67;;;11.96;50.55
43281;BME280;62175;49.416;8.690;2022-11-23T03:21:01;99167.78;;;11.95;53.08
43281;BME280;62175;49.416;8.690;2022-11-23T03:23:29;99165.73;;;11.96;53.91
43281;BME280;62175;49.416;8.690;2022-11-23T03:25:57;99167.40;;;11.65;50.98
43281;BME280;62175;49.416;8.690;2022-11-23T03:28:25;99168.93;;;11.77;51.77
43281;BME280;62175;49.416;8.690;2022-11-23T03:30:52;99173.56;;;11.72;52.12
43281;BME280;62175;49.416;8.690;2022-11-23T03:33:20;99171.72;;;11.67;50.84
43281;BME280;62175;49.416;8.690;2022-11-23T03:35:47;99173.84;;;11.60;51.30
43281;BME280;62175;49.416;8.690;2022-11-23T03:38:15;99175.12;;;11.70;52.35
43281;BME280;62175;49.416;8.690;2022-11-23T03:40:44;99178.24;;;11.69;51.04
43281;BME280;62175;49.416;8.690;2022-11-23T03:43:11;99179.36;;;11.58;52.50
43281;BME280;62175;49.416;8.690;2022-11-23T03:45:38;99181.21;;;11.72;52.30
43281;BME280;62175;49.416;8.690;2022-11-23T03:48:07;99174.19;;;11.93;51.94
43281;BME280;62175;49.416;8.690;2022-11-23T03:50:41;99177.59;;;11.78;50.39
43281;BME280;62175;49.416;8.690;2022-11-23T03:53:08;99175.67;;;11.76;51.74
43281;BME280;62175;49.416;8.690;2022-11-23T03:55:35;99168.15;;;11.49;50.19
43281;BME280;62175;49.416;8.690;2022-11-23T03:58:02;99171.97;;;11.62;50.89
43281;BME280;62175;49.416;8.690;2022-11-23T04:00:30;99167.67;;;11.79;50.55
43281;BME280;62175;49.416;8.690;2022-11-23T04:02:58;99169.09;;;11.67;51.35
43281;BME280;62175;49.416;8.690;2022-11-23T04:05:25;99166.04;;;12.12;52.26
43281;BME280;62175;49.416;8.690;2022-11-23T04:07:52;99167.04;;;11.54;50.76
43281;BME280;62175;49.416;8.690;2022-11-23T04:10:20;99164.25;;;11.57;50.94
43281;BME280;62175;49.416;8.690;2022-11-23T04:12:50;99166.25;;;12.02;51.50
43281;BME280;62175;49.416;8.690;2022-11-23T04:15:18;99163.79;;;12.17;51.08
43281;BME280;62175;49.416;8.690;2022-11-23T04:17:46;99167.33;;;12.27;49.97
43281;BME280;62175;49.416;8.690;2022-11-23T04:20:14;99166.04;;;12.03;50.05
43281;BME280;62175;49.416;8.690;2022-11-23T04:22:41;99168.49;;;11.96;50.11
43281;BME280;62175;49.416;8.690;2022-11-23T04:25:09;99166.53;;;11.81;50.36
43281;BME280;62175;49.416;8.690;2022-11-23T04:27:37;99169.23;;;11.95;51.22
43281;BME280;62175;49.416;8.690;2022-11-23T04:30:06;99171.56;;;11.71;50.13
43281;BME280;62175;49.416;8.690;2022-11-23T04:32:34;99160.88;;;11.53;50.69
43281;BME280;62175;49.416;8.690;2022-11-23T04:35:01;99160.63;;;12.14;50.69
43281;BME280;62175;49.416;8.690;2022-11-23T04:37:28;99162.54;;;11.47;49.67
43281;BME280;62175;49.416;8.690;2022-11-23T04:39:55;99160.75;;;11.35;50.42
43281;BME280;62175;49.416;8.690;2022-11-23T04:42:22;99161.90;;;11.80;49.99
43281;BME280;62175;49.416;8.690;2022-11-23T04:44:50;99157.45;;;11.75;49.73
43281;BME280;62175;49.416;8.690;2022-11-23T04:47:18;99161.08;;;12.16;51.84
43281;BME280;62175;49.416;8.690;2022-11-23T04:49:45;99160.35;;;11.72;51.93
43281;BME280;62175;49.416;8.690;2022-11-23T04:52:14;99159.27;;;11.73;51.08
43281;BME280;62175;49.416;8.690;2022-11-23T04:54:42;99157.70;;;11.71;50.78
43281;BME280;62175;49.416;8.690;2022-11-23T04:57:10;99157.23;;;12.06;50.02
43281;BME280;62175;49.416;8.690;2022-11-23T04:59:37;99154.17;;;11.71;49.60
43281;BME280;62175;49.416;8.690;2022-11-23T05:02:05;99154.38;;;11.75;51.92
43281;BME280;62175;49.416;8.690;2022-11-23T05:04:33;99154.15;;;11.77;51.69
43281;BME280;62175;49.416;8.690;2022-11-23T05:07:01;99149.63;;;11.84;49.65
43281;BME280;62175;49.416;8.690;2022-11-23T05:09:28;99153.95;;;12.20;50.79
43281;BME280;62175;49.416;8.690;2022-11-23T05:11:56;99151.92;;;12.02;49.37
43281;BME280;62175;49.416;8.690;2022-11-23T05:14:22;99154.46;;;11.64;51.91
43281;BME280;62175;49.416;8.690;2022-11-23T05:16:50;99155.16;;;11.77;51.42
43281;BME280;62175;49.416;8.690;2022-11-23T05:19:17;99159.43;;;11.73;51.88
43281;BME280;62175;49.416;8.690;2022-11-23T05:21:44;99157.41;;;11.97;51.11
43281;BME280;62175;49.416;8.690;2022-11-23T05:24:12;99158.70;;;11.70;49.01
43281;BME280;62175;49.416;8.690;2022-11-23T05:26:39;99155.44;;;11.77;49.84
43281;BME280;62175;49.416;8.690;2022-11-23T05:29:06;99152.69;;;11.93;50.42
43281;BME280;62175;49.416;8.690;2022-11-23T05:31:33;99150.84;;;11.88;51.67
43281;BME280;62175;49.416;8.690;2022-11-23T05:34:01;99149.61;;;11.97;49.76
43281;BME280;62175;49.416;8.690;2022-11-23T05:36:28;99152.04;;;11.93;49.27
43281;BME280;62175;49.416;8.690;2022-11-23T05:38:55;99152.30;;;12.10;51.77
43281;BME280;62175;49.416;8.690;2022-11-23T05:41:22;99144.75;;;11.89;51.82
43281;BME280;62175;49.416;8.690;2022-11-23T05:43:49;99142.42;;;12.07;49.92
43281;BME280;62175;49.416;8.690;2022-11-23T05:46:17;99141.05;;;12.26;49.95
43281;BME280;62175;49.416;8.690;2022-11-23T05:48:44;99146.91;;;11.78;50.74
43281;BME280;62175;49.416;8.690;2022-11-23T05:51:11;99151.44;;;11.79;49.97
43281;BME280;62175;49.416;8.690;2022-11-23T05:53:38;99151.47;;;11.71;50.73
43281;BME280;62175;49.416;8.690;2022-11-23T05:56:06;99149.25;;;12.05;50.79
43281;BME280;62175;49.416;8.690;2022-11-23T05:58:33;99146.75;;;11.59;50.99
43281;BME280;62175;49.416;8.690;2022-11-23T06:01:00;99153.66;;;11.85;51.13
43281;BME280;62175;49.416;8.690;2022-11-23T06:03:28;99157.94;;;12.16;51.67
43281;BME280;62175;49.416;8.690;2022-11-23T06:06:00;99165.69;;;11.98;51.08
43281;BME280;62175;49.416;8.690;2022-11-23T06:08:27;99164.31;;;11.91;50.97
43281;BME280;62175;49.416;8.690;2022-11-23T06:10:54;99155.56;;;11.47;51.24
43281;BME280;62175;49.416;8.690;2022-11-23T06:13:21;99162.68;;;11.46;51.06
43281;BME280;62175;49.416;8.690;2022-11-23T06:15:49;99163.66;;;11.91;52.53
43281;BME280;62175;49.416;8.690;2022-11-23T06:18:16;99159.11;;;11.78;51.97
43281;BME280;62175;49.416;8.690;2022-11-23T06:20:43;99158.14;;;12.06;50.97
43281;BME280;62175;49.416;8.690;2022-11-23T06:23:10;99164.62;;;11.62;50.87
43281;BME280;62175;49.416;8.690;2022-11-23T06:25:38;99164.63;;;11.52;50.67
43281;BME280;62175;49.416;8.690;2022-11-23T06:28:05;99167.97;;;11.98;51.28
43281;BME280;62175;49.416;8.690;2022-11-23T06:30:32;99170.94;;;11.53;51.15
43281;BME280;62175;49.416;8.690;2022-11-23T06:33:02;99168.98;;;11.51;50.80
43281;BME280;62175;49.416;8.690;2022-11-23T06:35:29;99170.93;;;11.30;51.05
43281;BME280;62175;49.416;8.690;2022-11-23T06:37:56;99171.41;;;11.56;51.48
43281;BME280;62175;49.416;8.690;2022-11-23T06:40:24;99167.53;;;11.52;51.13
43281;BME280;62175;49.416;8.690;2022-11-23T06:42:58;99163.64;;;11.78;50.63
43281;BME280;62175;49.416;8.690;2022-11-23T06:45:26;99163.04;;;11.50;50.87
43281;BME280;62175;49.416;8.690;2022-11-23T06:47:54;99167.65;;;11.65;51.04
43281;BME280;62175;49.416;8.690;2022-11-23T06:50:21;99169.97;;;11.56;51.87
43281;BME280;62175;49.416;8.690;2022-11-23T06:52:53;99164.69;;;11.09;53.26
43281;BME280;62175;49.416;8.690;2022-11-23T06:55:20;99170.14;;;11.55;51.02
43281;BME280;62175;49.416;8.690;2022-11-23T06:57:48;99177.75;;;11.59;52.35
43281;BME280;62175;49.416;8.690;2022-11-23T07:00:17;99183.74;;;11.43;50.47
43281;BME280;62175;49.416;8.690;2022-11-23T07:02:50;99186.53;;;11.29;50.68
43281;BME280;62175;49.416;8.690;2022-11-23T07:05:18;99191.96;;;11.42;51.22
43281;BME280;62175;49.416;8.690;2022-11-23T07:07:45;99195.81;;;11.20;51.42
43281;BME280;62175;49.416;8.690;2022-11-23T07:10:13;99193.03;;;11.62;51.29
43281;BME280;62175;49.416;8.690;2022-11-23T07:12:40;99192.63;;;11.56;51.63
43281;BME280;62175;49.416;8.690;2022-11-23T07:15:09;99191.30;;;11.54;51.09
43281;BME280;62175;49.416;8.690;2022-11-23T07:17:38;99189.29;;;11.46;50.87
43281;BME280;62175;49.416;8.690;2022-11-23T07:20:08;99190.40;;;11.57;50.90
43281;BME280;62175;49.416;8.690;2022-11-23T07:22:36;99189.74;;;11.48;50.16
43281;BME280;62175;49.416;8.690;2022-11-23T07:25:04;99191.99;;;11.14;51.27
43281;BME280;62175;49.416;8.690;2022-11-23T07:27:33;99192.71;;;11.54;53.01
43281;BME280;62175;49.416;8.690;2022-11-23T07:30:00;99193.74;;;11.42;52.12
43281;BME280;62175;49.416;8.690;2022-11-23T07:32:27;99196.35;;;11.46;52.02
43281;BME280;62175;49.416;8.690;2022-11-23T07:34:54;99200.41;;;11.48;51.21
43281;BME280;62175;49.416;8.690;2022-11-23T07:37:22;99205.62;;;11.28;50.98
43281;BME280;62175;49.416;8.690;2022-11-23T07:39:50;99201.86;;;11.54;52.57
43281;BME280;62175;49.416;8.690;2022-11-23T07:42:17;99207.57;;;11.51;50.95
43281;BME280;62175;49.416;8.690;2022-11-23T07:44:47;99212.20;;;11.54;50.70
43281;BME280;62175;49.416;8.690;2022-11-23T07:47:14;99214.32;;;11.37;50.92
43281;BME280;62175;49.416;8.690;2022-11-23T07:49:41;99215.70;;;11.36;51.54
43281;BME280;62175;49.416;8.690;2022-11-23T07:52:09;99217.89;;;11.17;51.73
43281;BME280;62175;49.416;8.690;2022-11-23T07:54:47;99218.60;;;11.14;51.83
43281;BME280;62175;49.416;8.690;2022-11-23T07:57:14;99218.44;;;11.02;51.43
43281;BME280;62175;49.416;8.690;2022-11-23T07:59:41;99223.09;;;11.34;52.10
43281;BME280;62175;49.416;8.690;2022-11-23T08:02:09;99218.16;;;10.98;51.73
43281;BME280;62175;49.416;8.690;2022-11-23T08:04:39;99213.45;;;10.94;52.11
43281;BME280;62175;49.416;8.690;2022-11-23T08:07:06;99217.97;;;11.53;51.46
43281;BME280;62175;49.416;8.690;2022-11-23T08:09:33;99214.12;;;10.88;51.66
43281;BME280;62175;49.416;8.690;2022-11-23T08:12:00;99215.30;;;10.96;52.56
43281;BME280;62175;49.416;8.690;2022-11-23T08:14:35;99211.70;;;10.99;52.22
43281;BME280;62175;49.416;8.690;2022-11-23T08:17:02;99211.67;;;11.03;51.65
43281;BME280;62175;49.416;8.690;2022-11-23T08:19:29;99214.17;;;11.13;51.86
43281;BME280;62175;49.416;8.690;2022-11-23T08:21:56;99210.91;;;11.15;51.34
43281;BME280;62175;49.416;8.690;2022-11-23T08:24:24;99213.79;;;11.04;52.08
43281;BME280;62175;49.416;8.690;2022-11-23T08:26:55;99218.52;;;11.11;51.75
43281;BME280;62175;49.416;8.690;2022-11-23T08:29:23;99211.25;;;10.96;52.08
43281;BME280;62175;49.416;8.690;2022-11-23T08:31:50;99214.80;;;11.44;51.62
43281;BME280;62175;49.416;8.690;2022-11-23T08:34:18;99220.30;;;11.28;51.55
43281;BME280;62175;49.416;8.690;2022-11-23T08:36:45;99220.20;;;11.24;51.77
43281;BME280;62175;49.416;8.690;2022-11-23T08:39:13;99215.65;;;11.17;51.98
43281;BME280;62175;49.416;8.690;2022-11-23T08:41:40;99218.03;;;11.16;52.02
43281;BME280;62175;49.416;8.690;2022-11-23T08:44:07;99224.64;;;11.13;51.29
43281;BME280;62175;49.416;8.690;2022-11-23T08:46:38;99217.63;;;11.08;51.81
43281;BME280;62175;49.416;8.690;2022-11-23T08:49:07;99211.42;;;11.04;52.10
43281;BME280;62175;49.416;8.690;2022-11-23T08:51:35;99218.89;;;11.23;51.66
43281;BME280;62175;49.416;8.690;2022-11-23T08:54:04;99216.16;;;11.53;51.42
43281;BME280;62175;49.416;8.690;2022-11-23T08:56:31;99222.72;;;11.28;52.38
43281;BME280;62175;49.416;8.690;2022-11-23T08:58:59;99216.55;;;11.12;51.22
43281;BME280;62175;49.416;8.690;2022-11-23T09:01:26;99216.89;;;11.64;51.06
43281;BME280;62175;49.416;8.690;2022-11-23T09:03:54;99221.77;;;11.38;50.58
43281;BME280;62175;49.416;8.690;2022-11-23T09:06:21;99218.01;;;11.26;51.13
43281;BME280;62175;49.416;8.690;2022-11-23T09:08:48;99221.65;;;11.55;51.33
43281;BME280;62175;49.416;8.690;2022-11-23T09:11:16;99223.01;;;11.36;51.15
43281;BME280;62175;49.416;8.690;2022-11-23T09:13:43;99218.15;;;11.49;51.60
43281;BME280;62175;49.416;8.690;2022-11-23T09:16:11;99222.78;;;11.49;51.83
43281;BME280;62175;49.416;8.690;2022-11-23T09:18:38;99221.43;;;11.43;51.62
43281;BME280;62175;49.416;8.690;2022-11-23T09:21:05;99222.65;;;11.58;52.41
43281;BME280;62175;49.416;8.690;2022-11-23T09:23:32;99224.89;;;11.58;50.98
43281;BME280;62175;49.416;8.690;2022-11-23T09:26:01;99230.20;;;11.68;50.82
43281;BME280;62175;49.416;8.690;2022-11-23T09:28:29;99233.13;;;11.45;51.20
43281;BME280;62175;49.416;8.690;2022-11-23T09:30:57;99229.12;;;11.64;50.74
43281;BME280;62175;49.416;8.690;2022-11-23T09:33:24;99233.85;;;11.64;51.69
43281;BME280;62175;49.416;8.690;2022-11-23T09:35:57;99228.96;;;11.85;51.97
43281;BME280;62175;49.416;8.690;2022-11-23T09:38:24;99228.19;;;11.34;50.75
43281;BME280;62175;49.416;8.690;2022-11-23T09:40:57;99234.01;;;11.71;51.32
43281;BME280;62175;49.416;8.690;2022-11-23T09:43:38;99234.34;;;12.01;50.35
43281;BME280;62175;49.416;8.690;2022-11-23T09:46:12;99231.47;;;11.44;51.13
43281;BME280;62175;49.416;8.690;2022-11-23T09:48:57;99228.08;;;11.63;50.65
43281;BME280;62175;49.416;8.690;2022-11-23T09:51:30;99222.63;;;11.78;51.08
43281;BME280;62175;49.416;8.690;2022-11-23T09:54:01;99220.81;;;12.21;50.92
43281;BME280;62175;49.416;8.690;2022-11-23T09:56:33;99217.57;;;12.04;51.34
43281;BME280;62175;49.416;8.690;2022-11-23T09:59:02;99212.56;;;12.23;51.54
43281;BME280;62175;49.416;8.690;2022-11-23T10:01:31;99211.05;;;12.15;49.59
43281;BME280;62175;49.416;8.690;2022-11-23T10:03:59;99205.92;;;11.95;50.59
43281;BME280;62175;49.416;8.690;2022-11-23T10:06:28;99212.80;;;11.79;50.07
43281;BME280;62175;49.416;8.690;2022-11-23T10:09:02;99211.23;;;12.08;49.89
43281;BME280;62175;49.416;8.690;2022-11-23T10:11:46;99211.31;;;11.85;49.92
43281;BME280;62175;49.416;8.690;2022-11-23T10:14:29;99214.92;;;11.82;50.07
43281;BME280;62175;49.416;8.690;2022-11-23T10:17:03;99207.61;;;12.47;50.29
43281;BME280;62175;49.416;8.690;2022-11-23T10:19:50;99207.66;;;12.10;49.52
43281;BME280;62175;49.416;8.690;2022-11-23T10:22:26;99201.75;;;12.17;50.77
43281;BME280;62175;49.416;8.690;2022-11-23T10:24:57;99198.67;;;12.06;49.66
43281;BME280;62175;49.416;8.690;2022-11-23T10:27:28;99196.35;;;12.10;49.85
43281;BME280;62175;49.416;8.690;2022-11-23T10:29:58;99195.62;;;12.33;49.61
43281;BME280;62175;49.416;8.690;2022-11-23T10:32:30;99199.07;;;12.36;49.49
43281;BME280;62175;49.416;8.690;2022-11-23T10:35:04;99198.23;;;12.89;49.84
43281;BME280;62175;49.416;8.690;2022-11-23T10:37:33;99197.91;;;12.32;50.02
43281;BME280;62175;49.416;8.690;2022-11-23T10:40:00;99192.70;;;12.35;49.64
43281;BME280;62175;49.416;8.690;2022-11-23T10:42:32;99188.89;;;12.23;50.31
43281;BME280;62175;49.416;8.690;2022-11-23T10:45:02;99192.33;;;12.59;49.71
43281;BME280;62175;49.416;8.690;2022-11-23T10:47:36;99188.24;;;12.35;49.16
43281;BME280;62175;49.416;8.690;2022-11-23T10:50:20;99189.57;;;12.35;49.11
43281;BME280;62175;49.416;8.690;2022-11-23T10:52:52;99185.88;;;12.36;48.85
43281;BME280;62175;49.416;8.690;2022-11-23T10:55:24;99181.84;;;12.43;49.29
43281;BME280;62175;49.416;8.690;2022-11-23T10:57:52;99181.18;;;12.37;49.90
43281;BME280;62175;49.416;8.690;2022-11-23T11:00:21;99184.04;;;12.74;49.88
43281;BME280;62175;49.416;8.690;2022-11-23T11:02:51;99183.16;;;12.45;50.21
43281;BME280;62175;49.416;8.690;2022-11-23T11:05:27;99183.98;;;12.43;49.16
43281;BME280;62175;49.416;8.690;2022-11-23T11:07:56;99183.82;;;12.38;49.66
43281;BME280;62175;49.416;8.690;2022-11-23T11:10:34;99182.92;;;12.13;49.84
43281;BME280;62175;49.416;8.690;2022-11-23T11:13:02;99177.40;;;12.89;50.85
43281;BME280;62175;49.416;8.690;2022-11-23T11:15:30;99175.55;;;12.55;49.36
43281;BME280;62175;49.416;8.690;2022-11-23T11:17:59;99169.95;;;12.50;48.71
43281;BME280;62175;49.416;8.690;2022-11-23T11:20:32;99163.24;;;12.63;48.57
43281;BME280;62175;49.416;8.690;2022-11-23T11:23:02;99160.86;;;12.50;47.97
43281;BME280;62175;49.416;8.690;2022-11-23T11:25:33;99155.19;;;12.64;46.64
43281;BME280;62175;49.416;8.690;2022-11-23T11:28:02;99151.02;;;12.49;48.44
43281;BME280;62175;49.416;8.690;2022-11-23T11:30:37;99147.02;;;12.82;47.09
43281;BME280;62175;49.416;8.690;2022-11-23T11:33:12;99146.31;;;12.87;48.30
43281;BME280;62175;49.416;8.690;2022-11-23T11:35:44;99142.88;;;12.98;47.28
43281;BME280;62175;49.416;8.690;2022-11-23T11:38:18;99142.48;;;12.93;48.33
43281;BME280;62175;49.416;8.690;2022-11-23T11:40:48;99137.95;;;12.94;47.99
43281;BME280;62175;49.416;8.690;2022-11-23T11:43:19;99130.38;;;12.87;47.94
43281;BME280;62175;49.416;8.690;2022-11-23T11:45:50;99126.04;;;12.94;48.76
43281;BME280;62175;49.416;8.690;2022-11-23T11:48:22;99123.20;;;13.02;48.84
43281;BME280;62175;49.416;8.690;2022-11-23T11:50:58;99119.34;;;13.01;48.32
43281;BME280;62175;49.416;8.690;2022-11-23T11:53:30;99120.32;;;13.03;48.66
43281;BME280;62175;49.416;8.690;2022-11-23T11:56:05;99119.20;;;13.06;47.92
43281;BME280;62175;49.416;8.690;2022-11-23T11:58:40;99115.20;;;13.04;48.31
43281;BME280;62175;49.416;8.690;2022-11-23T12:01:20;99110.93;;;12.71;49.14
43281;BME280;62175;49.416;8.690;2022-11-23T12:03:55;99112.56;;;13.06;48.89
43281;BME280;62175;49.416;8.690;2022-11-23T12:06:27;99102.22;;;13.16;49.11
43281;BME280;62175;49.416;8.690;2022-11-23T12:09:00;99096.84;;;12.92;48.95
43281;BME280;62175;49.416;8.690;2022-11-23T12:11:29;99101.08;;;13.15;48.66
43281;BME280;62175;49.416;8.690;2022-11-23T12:14:01;99103.35;;;13.18;48.30
43281;BME280;62175;49.416;8.690;2022-11-23T12:16:36;99095.21;;;13.21;48.72
43281;BME280;62175;49.416;8.690;2022-11-23T12:19:13;99092.57;;;12.86;48.63
43281;BME280;62175;49.416;8.690;2022-11-23T12:22:10;99091.54;;;13.22;48.54
43281;BME280;62175;49.416;8.690;2022-11-23T12:24:55;99083.24;;;12.88;48.73
43281;BME280;62175;49.416;8.690;2022-11-23T12:27:36;99081.35;;;13.20;49.61
43281;BME280;62175;49.416;8.690;2022-11-23T12:30:18;99075.74;;;13.20;49.09
43281;BME280;62175;49.416;8.690;2022-11-23T12:32:59;99067.30;;;13.18;48.86
43281;BME280;62175;49.416;8.690;2022-11-23T12:36:00;99071.43;;;13.18;49.25
43281;BME280;62175;49.416;8.690;2022-11-23T12:38:33;99071.23;;;12.89;49.41
43281;BME280;62175;49.416;8.690;2022-11-23T12:41:17;99071.42;;;13.29;49.05
43281;BME280;62175;49.416;8.690;2022-11-23T12:43:58;99069.91;;;13.07;48.69
43281;BME280;62175;49.416;8.690;2022-11-23T12:46:35;99067.36;;;12.78;48.82
43281;BME280;62175;49.416;8.690;2022-11-23T12:49:16;99065.63;;;13.03;48.44
43281;BME280;62175;49.416;8.690;2022-11-23T12:51:53;99064.15;;;13.11;49.15
43281;BME280;62175;49.416;8.690;2022-11-23T12:54:39;99064.64;;;13.04;49.77
43281;BME280;62175;49.416;8.690;2022-11-23T12:57:14;99062.10;;;13.06;48.87
43281;BME280;62175;49.416;8.690;2022-11-23T12:59:47;99060.35;;;12.97;48.62
43281;BME280;62175;49.416;8.690;2022-11-23T13:02:47;99055.44;;;13.03;49.35
43281;BME280;62175;49.416;8.690;2022-11-23T13:05:47;99052.77;;;13.22;48.69
43281;BME280;62175;49.416;8.690;2022-11-23T13:08:48;99047.46;;;13.21;48.96
43281;BME280;62175;49.416;8.690;2022-11-23T13:11:33;99045.80;;;13.24;48.64
43281;BME280;62175;49.416;8.690;2022-11-23T13:14:14;99048.80;;;13.45;48.54
43281;BME280;62175;49.416;8.690;2022-11-23T13:17:00;99045.79;;;13.35;47.59